createdAt,value
2019-01-11T00:00:17.068Z,6.85
2019-01-11T00:02:48.875Z,6.72
2019-01-11T00:05:20.382Z,6.67
2019-01-11T00:07:52.192Z,8.70
2019-01-11T00:10:23.748Z,7.17
2019-01-11T00:12:55.460Z,6.95
2019-01-11T00:15:26.995Z,7.90
2019-01-11T00:17:58.920Z,7.58
2019-01-11T00:20:31.007Z,7.53
2019-01-11T00:23:02.552Z,7.00
2019-01-11T00:25:34.452Z,5.85
2019-01-11T00:28:06.101Z,8.68
2019-01-11T00:30:37.847Z,7.45
2019-01-11T00:33:09.454Z,7.28
2019-01-11T00:35:41.138Z,7.47
2019-01-11T00:38:12.880Z,6.92
2019-01-11T00:40:44.704Z,5.75
2019-01-11T00:43:16.541Z,5.87
2019-01-11T00:45:48.120Z,6.67
2019-01-11T00:48:20.103Z,7.30
2019-01-11T00:50:51.968Z,7.60
2019-01-11T00:53:24.260Z,7.83
2019-01-11T00:55:56.159Z,9.05
2019-01-11T00:58:28.896Z,8.83
2019-01-11T01:01:01.019Z,7.30
2019-01-11T01:03:33.102Z,7.62
2019-01-11T01:06:05.489Z,9.95
2019-01-11T01:08:37.554Z,11.03
2019-01-11T01:11:09.441Z,12.20
2019-01-11T01:13:44.580Z,10.48
2019-01-11T01:16:17.054Z,8.23
2019-01-11T01:18:48.760Z,12.03
2019-01-11T01:21:20.389Z,18.48
2019-01-11T01:23:52.129Z,17.35
2019-01-11T01:26:24.071Z,17.40
2019-01-11T01:28:55.917Z,14.38
2019-01-11T01:31:27.742Z,14.68
2019-01-11T01:33:59.494Z,16.40
2019-01-11T01:36:31.197Z,17.05
2019-01-11T01:39:03.215Z,13.22
2019-01-11T01:41:34.783Z,9.93
2019-01-11T01:44:06.833Z,7.40
2019-01-11T01:46:38.909Z,6.55
2019-01-11T01:49:10.342Z,7.53
2019-01-11T01:51:44.067Z,7.97
2019-01-11T01:54:15.774Z,11.73
2019-01-11T01:56:47.436Z,10.35
2019-01-11T01:59:19.018Z,10.72
2019-01-11T02:01:50.529Z,9.68
2019-01-11T02:04:22.016Z,6.87
2019-01-11T02:06:53.561Z,8.20
2019-01-11T02:09:26.224Z,7.53
2019-01-11T02:11:57.889Z,7.40
2019-01-11T02:14:29.693Z,7.65
2019-01-11T02:17:01.550Z,7.97
2019-01-11T02:19:33.373Z,8.05
2019-01-11T02:22:05.004Z,9.75
2019-01-11T02:24:36.505Z,9.60
2019-01-11T02:27:08.174Z,10.03
2019-01-11T02:29:39.707Z,9.30
2019-01-11T02:32:11.291Z,9.68
2019-01-11T02:34:42.938Z,8.05
2019-01-11T02:37:14.695Z,8.08
2019-01-11T02:39:46.414Z,8.10
2019-01-11T02:42:18.075Z,8.08
2019-01-11T02:44:49.715Z,7.85
2019-01-11T02:47:21.335Z,7.87
2019-01-11T02:49:52.780Z,7.33
2019-01-11T02:52:24.585Z,8.13
2019-01-11T02:54:56.046Z,7.12
2019-01-11T02:57:27.703Z,7.62
2019-01-11T02:59:59.387Z,7.83
2019-01-11T03:02:31.378Z,9.70
2019-01-11T03:05:02.960Z,10.40
2019-01-11T03:07:34.648Z,9.88
2019-01-11T03:10:07.681Z,8.45
2019-01-11T03:12:39.087Z,8.83
2019-01-11T03:15:10.981Z,8.63
2019-01-11T03:17:42.725Z,9.43
2019-01-11T03:20:16.117Z,10.95
2019-01-11T03:22:47.832Z,10.25
2019-01-11T03:25:19.426Z,9.33
2019-01-11T03:27:51.101Z,9.68
2019-01-11T03:30:23.608Z,10.43
2019-01-11T03:32:56.014Z,11.35
2019-01-11T03:35:27.945Z,12.95
2019-01-11T03:37:59.613Z,11.73
2019-01-11T03:40:32.328Z,12.47
2019-01-11T03:43:04.118Z,10.28
2019-01-11T03:45:36.166Z,10.50
2019-01-11T03:48:08.043Z,10.32
2019-01-11T03:50:39.639Z,10.00
2019-01-11T03:53:11.480Z,10.35
2019-01-11T03:55:43.161Z,10.38
2019-01-11T03:58:14.724Z,9.80
2019-01-11T04:00:47.368Z,9.73
2019-01-11T04:03:19.203Z,9.53
2019-01-11T04:05:51.009Z,10.08
2019-01-11T04:08:22.693Z,10.45
2019-01-11T04:10:54.425Z,10.05
2019-01-11T04:13:30.498Z,10.53
2019-01-11T04:15:59.793Z,11.33
2019-01-11T04:18:36.024Z,10.35
2019-01-11T04:21:07.999Z,11.10
2019-01-11T04:23:39.697Z,11.35
2019-01-11T04:26:11.449Z,15.70
2019-01-11T04:28:43.129Z,15.38
2019-01-11T04:31:14.757Z,16.77
2019-01-11T04:33:46.447Z,14.65
2019-01-11T04:36:18.469Z,11.88
2019-01-11T04:38:50.015Z,10.98
2019-01-11T04:41:21.636Z,10.78
2019-01-11T04:43:53.354Z,9.85
2019-01-11T04:46:25.021Z,8.78
2019-01-11T04:48:56.761Z,8.63
2019-01-11T04:51:28.633Z,8.33
2019-01-11T04:54:00.316Z,8.58
2019-01-11T04:56:32.210Z,7.87
2019-01-11T04:59:04.101Z,8.65
2019-01-11T05:01:35.840Z,9.15
2019-01-11T05:04:07.929Z,9.48
2019-01-11T05:06:39.758Z,8.73
2019-01-11T05:09:11.363Z,9.30
2019-01-11T05:11:43.175Z,10.23
2019-01-11T05:14:14.932Z,24.52
2019-01-11T05:16:46.482Z,10.10
2019-01-11T05:19:18.223Z,9.15
2019-01-11T05:21:50.084Z,8.63
2019-01-11T05:24:21.715Z,10.50
2019-01-11T05:26:53.824Z,8.43
2019-01-11T05:29:25.268Z,8.53
2019-01-11T05:31:56.821Z,8.85
2019-01-11T05:34:28.549Z,9.78
2019-01-11T05:37:00.740Z,8.60
2019-01-11T05:39:32.512Z,8.88
2019-01-11T05:42:04.616Z,9.75
2019-01-11T05:44:36.469Z,8.48
2019-01-11T05:47:08.479Z,9.78
2019-01-11T05:49:40.759Z,9.60
2019-01-11T05:52:12.800Z,10.15
2019-01-11T05:54:45.037Z,9.95
2019-01-11T05:57:16.871Z,10.45
2019-01-11T05:59:48.703Z,10.45
2019-01-11T06:02:20.255Z,9.63
2019-01-11T06:04:59.903Z,10.03
2019-01-11T06:07:42.728Z,11.95
2019-01-11T06:10:16.850Z,22.00
2019-01-11T06:12:48.655Z,15.15
2019-01-11T06:15:20.395Z,12.00
2019-01-11T06:17:52.054Z,11.75
2019-01-11T06:20:30.051Z,10.25
2019-01-11T06:22:57.334Z,10.98
2019-01-11T06:25:34.626Z,10.85
2019-01-11T06:28:18.531Z,9.45
2019-01-11T06:30:50.221Z,9.70
2019-01-11T06:33:22.071Z,10.03
2019-01-11T06:35:54.136Z,9.70
2019-01-11T06:38:25.769Z,10.43
2019-01-11T06:40:57.493Z,9.03
2019-01-11T06:43:29.473Z,9.00
2019-01-11T06:46:01.233Z,9.50
2019-01-11T06:48:42.325Z,10.23
2019-01-11T06:51:14.293Z,10.30
2019-01-11T06:53:46.358Z,13.68
2019-01-11T06:56:18.049Z,12.55
2019-01-11T06:58:50.029Z,11.03
2019-01-11T07:01:22.133Z,14.50
2019-01-11T07:03:54.331Z,19.17
2019-01-11T07:06:26.074Z,10.40
2019-01-11T07:08:57.814Z,8.03
2019-01-11T07:11:29.433Z,14.40
2019-01-11T07:14:01.080Z,11.75
2019-01-11T07:16:33.925Z,10.10
2019-01-11T07:19:06.147Z,8.73
2019-01-11T07:21:38.075Z,8.68
2019-01-11T07:24:09.723Z,8.40
2019-01-11T07:26:41.296Z,7.95
2019-01-11T07:29:13.065Z,8.60
2019-01-11T07:31:47.716Z,9.58
2019-01-11T07:34:19.792Z,12.20
2019-01-11T07:36:54.632Z,12.18
2019-01-11T07:39:30.647Z,9.08
2019-01-11T07:42:02.730Z,7.25
2019-01-11T07:44:34.405Z,5.83
2019-01-11T07:47:07.683Z,7.47
2019-01-11T07:49:39.459Z,7.77
2019-01-11T07:52:11.936Z,10.00
2019-01-11T07:54:43.784Z,8.93
2019-01-11T07:57:16.285Z,11.67
2019-01-11T07:59:48.098Z,8.70
2019-01-11T08:02:19.857Z,8.90
2019-01-11T08:04:51.975Z,8.30
2019-01-11T08:07:23.661Z,11.40
2019-01-11T08:09:55.851Z,12.53
2019-01-11T08:12:27.632Z,9.47
2019-01-11T08:15:00.837Z,6.90
2019-01-11T08:17:34.221Z,6.67
2019-01-11T08:20:06.296Z,8.63
2019-01-11T08:22:42.464Z,9.50
2019-01-11T08:25:14.909Z,8.93
2019-01-11T08:27:46.893Z,8.93
2019-01-11T08:30:18.958Z,8.53
2019-01-11T08:32:51.324Z,8.10
2019-01-11T08:35:23.157Z,7.60
2019-01-11T08:37:54.995Z,7.03
2019-01-11T08:40:27.460Z,5.80
2019-01-11T08:42:59.363Z,5.90
2019-01-11T08:45:31.092Z,4.60
2019-01-11T08:48:02.994Z,4.37
2019-01-11T08:50:34.816Z,4.10
2019-01-11T08:53:06.743Z,4.00
2019-01-11T08:55:39.219Z,4.17
2019-01-11T08:58:11.137Z,4.13
2019-01-11T09:00:42.957Z,3.70
2019-01-11T09:03:14.797Z,3.73
2019-01-11T09:05:46.609Z,4.10
2019-01-11T09:08:18.872Z,4.37
2019-01-11T09:10:51.200Z,4.10
2019-01-11T09:13:23.990Z,3.97
2019-01-11T09:15:55.910Z,3.40
2019-01-11T09:18:38.210Z,3.80
2019-01-11T09:21:11.447Z,3.70
2019-01-11T09:23:43.300Z,3.60
2019-01-11T09:26:15.556Z,3.60
2019-01-11T09:28:47.469Z,4.10
2019-01-11T09:31:20.344Z,3.87
2019-01-11T09:33:52.946Z,3.63
2019-01-11T09:36:25.240Z,3.80
2019-01-11T09:38:58.179Z,3.90
2019-01-11T09:41:30.260Z,3.40
2019-01-11T09:44:02.055Z,3.90
2019-01-11T09:46:34.089Z,3.63
2019-01-11T09:49:06.006Z,4.10
2019-01-11T09:51:38.075Z,3.37
2019-01-11T09:54:10.209Z,4.03
2019-01-11T09:56:42.486Z,3.87
2019-01-11T09:59:14.490Z,3.80
2019-01-11T10:01:47.931Z,4.27
2019-01-11T10:04:24.912Z,3.20
2019-01-11T10:07:08.133Z,3.40
2019-01-11T10:09:40.273Z,3.97
2019-01-11T10:12:12.875Z,3.33
2019-01-11T10:14:44.969Z,3.80
2019-01-11T10:17:16.851Z,3.27
2019-01-11T10:19:49.148Z,2.93
2019-01-11T10:22:21.251Z,3.50
2019-01-11T10:24:54.149Z,2.80
2019-01-11T10:27:27.029Z,3.10
2019-01-11T10:29:58.638Z,3.30
2019-01-11T10:32:30.507Z,3.20
2019-01-11T10:35:04.514Z,3.30
2019-01-11T10:37:36.476Z,2.77
2019-01-11T10:40:10.359Z,3.13
2019-01-11T10:42:42.715Z,3.17
2019-01-11T10:45:24.971Z,3.60
2019-01-11T10:47:59.528Z,3.60
2019-01-11T10:50:31.418Z,3.60
2019-01-11T10:53:03.375Z,4.57
2019-01-11T10:55:35.001Z,3.90
2019-01-11T10:58:07.550Z,2.53
2019-01-11T11:00:41.219Z,2.73
2019-01-11T11:03:13.902Z,2.10
2019-01-11T11:05:45.724Z,2.90
2019-01-11T11:08:17.730Z,2.30
2019-01-11T11:10:50.793Z,2.97
2019-01-11T11:13:22.360Z,2.67
2019-01-11T11:15:57.012Z,3.40
2019-01-11T11:18:28.870Z,13.57
2019-01-11T11:21:00.570Z,5.90
2019-01-11T11:23:32.302Z,3.67
2019-01-11T11:26:04.993Z,4.00
2019-01-11T11:28:36.650Z,3.83
2019-01-11T11:31:09.433Z,2.77
2019-01-11T11:33:41.179Z,2.30
2019-01-11T11:36:13.511Z,2.40
2019-01-11T11:38:45.428Z,2.70
2019-01-11T11:41:18.565Z,3.40
2019-01-11T11:43:50.746Z,3.30
2019-01-11T11:46:23.308Z,3.80
2019-01-11T11:48:56.286Z,4.20
2019-01-11T11:51:28.645Z,5.00
2019-01-11T11:54:00.613Z,6.87
2019-01-11T11:56:33.772Z,5.03
2019-01-11T11:59:06.134Z,2.70
2019-01-11T12:01:38.492Z,3.20
2019-01-11T12:04:10.114Z,2.13
2019-01-11T12:06:42.006Z,2.90
2019-01-11T12:09:13.826Z,4.00
2019-01-11T12:11:45.409Z,2.70
2019-01-11T12:14:17.275Z,4.70
2019-01-11T12:16:48.944Z,3.80
2019-01-11T12:19:20.557Z,3.33
2019-01-11T12:21:52.393Z,2.57
2019-01-11T12:24:23.998Z,6.30
2019-01-11T12:26:55.730Z,5.73
2019-01-11T12:29:27.432Z,3.83
2019-01-11T12:31:59.107Z,5.40
2019-01-11T12:34:31.208Z,4.20
2019-01-11T12:37:03.054Z,4.43
2019-01-11T12:39:34.713Z,4.00
2019-01-11T12:42:07.261Z,3.30
2019-01-11T12:44:39.021Z,2.80
2019-01-11T12:47:11.335Z,4.67
2019-01-11T12:49:48.473Z,4.87
2019-01-11T12:52:20.836Z,2.80
2019-01-11T12:54:53.087Z,12.03
2019-01-11T12:57:25.408Z,2.90
2019-01-11T12:59:58.334Z,5.73
2019-01-11T13:02:31.418Z,8.00
2019-01-11T13:05:04.496Z,17.17
2019-01-11T13:07:40.133Z,3.97
2019-01-11T13:10:15.657Z,4.50
2019-01-11T13:12:47.507Z,2.50
2019-01-11T13:15:25.189Z,3.13
2019-01-11T13:17:59.148Z,3.43
2019-01-11T13:20:30.906Z,2.60
2019-01-11T13:23:03.615Z,2.60
2019-01-11T13:25:35.403Z,2.50
2019-01-11T13:28:07.493Z,3.00
2019-01-11T13:30:39.052Z,4.13
2019-01-11T13:33:11.025Z,7.77
2019-01-11T13:35:43.482Z,3.17
2019-01-11T13:38:15.169Z,2.20
2019-01-11T13:40:47.025Z,2.40
2019-01-11T13:43:19.185Z,2.30
2019-01-11T13:45:51.189Z,2.10
2019-01-11T13:48:23.087Z,3.63
2019-01-11T13:50:56.312Z,2.70
2019-01-11T13:53:29.912Z,2.30
2019-01-11T13:56:03.432Z,3.20
2019-01-11T13:58:35.300Z,4.67
2019-01-11T14:01:08.747Z,4.50
2019-01-11T14:03:40.511Z,4.03
2019-01-11T14:06:12.691Z,5.37
2019-01-11T14:08:44.630Z,2.40
2019-01-11T14:11:17.518Z,3.50
2019-01-11T14:13:49.948Z,4.20
2019-01-11T14:16:22.670Z,5.20
2019-01-11T14:18:54.571Z,4.00
2019-01-11T14:21:27.016Z,3.37
2019-01-11T14:23:59.427Z,4.10
2019-01-11T14:26:31.284Z,2.97
2019-01-11T14:29:03.075Z,4.00
2019-01-11T14:31:37.293Z,3.33
2019-01-11T14:34:09.456Z,3.50
2019-01-11T14:36:42.795Z,4.00
2019-01-11T14:39:14.777Z,3.17
2019-01-11T14:41:47.707Z,3.63
2019-01-11T14:44:19.686Z,4.30
2019-01-11T14:46:51.955Z,4.00
2019-01-11T14:49:25.201Z,3.83
2019-01-11T14:51:56.893Z,4.17
2019-01-11T14:54:28.708Z,3.63
2019-01-11T14:57:02.863Z,4.73
2019-01-11T14:59:35.038Z,2.60
2019-01-11T15:02:07.140Z,4.97
2019-01-11T15:04:39.842Z,4.43
2019-01-11T15:07:11.760Z,5.00
2019-01-11T15:09:44.445Z,6.10
2019-01-11T15:12:16.473Z,4.87
2019-01-11T15:14:51.737Z,4.93
2019-01-11T15:17:23.358Z,5.80
2019-01-11T15:19:55.567Z,3.70
2019-01-11T15:22:27.478Z,3.60
2019-01-11T15:24:59.260Z,4.30
2019-01-11T15:27:32.403Z,3.73
2019-01-11T15:30:05.640Z,4.00
2019-01-11T15:32:38.819Z,3.90
2019-01-11T15:35:10.764Z,3.60
2019-01-11T15:37:44.199Z,4.40
2019-01-11T15:40:26.528Z,3.80
2019-01-11T15:42:58.794Z,7.70
2019-01-11T15:45:31.108Z,4.20
2019-01-11T15:48:03.542Z,5.10
2019-01-11T15:50:55.792Z,5.00
2019-01-11T15:53:34.583Z,4.90
2019-01-11T15:56:12.382Z,7.67
2019-01-11T15:58:46.902Z,4.83
2019-01-11T16:01:19.000Z,6.73
2019-01-11T16:03:51.717Z,10.00
2019-01-11T16:06:38.482Z,9.83
2019-01-11T16:10:06.058Z,7.03
2019-01-11T16:12:51.255Z,8.10
2019-01-11T16:15:59.343Z,6.28
2019-01-11T16:18:35.965Z,5.78
2019-01-11T16:21:08.924Z,7.07
2019-01-11T16:23:41.537Z,7.12
2019-01-11T16:26:15.352Z,6.53
2019-01-11T16:28:47.509Z,4.45
2019-01-11T16:31:21.858Z,5.00
2019-01-11T16:33:53.932Z,7.08
2019-01-11T16:36:27.415Z,4.62
2019-01-11T16:38:59.319Z,12.80
2019-01-11T16:41:33.657Z,14.35
2019-01-11T16:44:06.325Z,23.42
2019-01-11T16:46:39.505Z,11.85
2019-01-11T16:49:12.278Z,11.08
2019-01-11T16:51:45.425Z,10.78
2019-01-11T16:54:18.065Z,11.93
2019-01-11T16:56:51.279Z,25.85
2019-01-11T16:59:24.124Z,26.90
2019-01-11T17:01:57.120Z,11.85
2019-01-11T17:04:30.119Z,14.55
2019-01-11T17:07:04.905Z,4.50
2019-01-11T17:09:38.099Z,5.00
2019-01-11T17:12:11.456Z,5.42
2019-01-11T17:14:45.554Z,6.87
2019-01-11T17:17:17.476Z,6.75
2019-01-11T17:19:49.716Z,6.40
2019-01-11T17:22:25.000Z,7.22
2019-01-11T17:24:57.125Z,8.68
2019-01-11T17:27:29.229Z,12.20
2019-01-11T17:30:01.042Z,13.45
2019-01-11T17:32:32.952Z,10.50
2019-01-11T17:35:05.237Z,8.80
2019-01-11T17:37:38.855Z,12.88
2019-01-11T17:40:12.615Z,19.45
2019-01-11T17:42:44.586Z,9.45
2019-01-11T17:45:17.861Z,6.85
2019-01-11T17:47:50.034Z,5.95
2019-01-11T17:50:22.147Z,6.30
2019-01-11T17:52:59.823Z,6.65
2019-01-11T17:55:28.639Z,6.75
2019-01-11T17:58:00.636Z,9.80
2019-01-11T18:00:33.955Z,7.60
2019-01-11T18:03:07.478Z,14.83
2019-01-11T18:05:39.589Z,15.05
2019-01-11T18:08:11.778Z,9.30
2019-01-11T18:10:47.007Z,7.92
2019-01-11T18:13:19.221Z,7.00
2019-01-11T18:15:51.510Z,7.22
2019-01-11T18:18:24.047Z,6.78
2019-01-11T18:20:56.503Z,8.08
2019-01-11T18:23:28.967Z,9.03
2019-01-11T18:26:02.836Z,9.78
2019-01-11T18:28:37.944Z,11.63
2019-01-11T18:31:10.281Z,11.55
2019-01-11T18:33:45.582Z,15.83
2019-01-11T18:36:18.384Z,13.10
2019-01-11T18:38:52.909Z,11.57
2019-01-11T18:41:27.011Z,8.98
2019-01-11T18:43:59.351Z,7.05
2019-01-11T18:46:31.680Z,7.87
2019-01-11T18:49:04.377Z,7.70
2019-01-11T18:51:37.048Z,6.50
2019-01-11T18:54:11.967Z,6.85
2019-01-11T18:56:46.181Z,7.10
2019-01-11T18:59:18.519Z,7.22
2019-01-11T19:01:50.744Z,7.37
2019-01-11T19:04:22.727Z,7.03
2019-01-11T19:06:55.917Z,7.00
2019-01-11T19:09:28.236Z,7.37
2019-01-11T19:12:00.728Z,7.45
2019-01-11T19:14:33.920Z,9.08
2019-01-11T19:17:06.093Z,9.00
2019-01-11T19:19:38.368Z,9.40
2019-01-11T19:22:10.591Z,9.70
2019-01-11T19:24:45.068Z,18.02
2019-01-11T19:27:19.434Z,22.85
2019-01-11T19:29:51.949Z,19.25
2019-01-11T19:32:24.126Z,12.85
2019-01-11T19:34:56.983Z,9.33
2019-01-11T19:37:29.364Z,5.55
2019-01-11T19:40:02.246Z,5.83
2019-01-11T19:42:34.870Z,10.48
2019-01-11T19:45:09.845Z,12.20
2019-01-11T19:47:42.029Z,16.85
2019-01-11T19:50:17.219Z,17.40
2019-01-11T19:52:50.276Z,18.77
2019-01-11T19:55:23.103Z,18.25
2019-01-11T19:57:56.516Z,14.98
2019-01-11T20:00:31.189Z,14.47
2019-01-11T20:03:03.532Z,15.13
2019-01-11T20:05:36.328Z,18.32
2019-01-11T20:08:09.612Z,21.25
2019-01-11T20:10:41.536Z,20.68
2019-01-11T20:13:13.881Z,19.52
2019-01-11T20:15:46.585Z,16.70
2019-01-11T20:18:18.783Z,15.48
2019-01-11T20:20:51.464Z,16.62
2019-01-11T20:23:24.253Z,15.32
2019-01-11T20:25:56.778Z,15.55
2019-01-11T20:28:30.804Z,12.70
2019-01-11T20:31:03.168Z,10.48
2019-01-11T20:33:35.229Z,11.03
2019-01-11T20:36:07.432Z,10.72
2019-01-11T20:38:39.595Z,16.73
2019-01-11T20:41:11.839Z,17.55
2019-01-11T20:43:44.030Z,11.00
2019-01-11T20:46:16.100Z,9.25
2019-01-11T20:48:48.127Z,9.25
2019-01-11T20:51:21.734Z,8.33
2019-01-11T20:53:54.149Z,12.28
2019-01-11T20:56:26.431Z,15.58
2019-01-11T20:58:59.575Z,27.73
2019-01-11T21:01:31.825Z,24.07
2019-01-11T21:04:03.927Z,39.85
2019-01-11T21:06:36.144Z,30.23
2019-01-11T21:09:11.043Z,21.57
2019-01-11T21:11:47.217Z,20.08
2019-01-11T21:14:20.441Z,19.48
2019-01-11T21:16:53.014Z,18.70
2019-01-11T21:19:26.280Z,17.12
2019-01-11T21:21:59.494Z,25.40
2019-01-11T21:24:31.634Z,21.97
2019-01-11T21:27:04.643Z,25.77
2019-01-11T21:29:37.058Z,23.30
2019-01-11T21:32:09.367Z,28.38
2019-01-11T21:34:41.746Z,23.73
2019-01-11T21:37:13.682Z,16.95
2019-01-11T21:39:46.150Z,11.50
2019-01-11T21:42:19.136Z,8.80
2019-01-11T21:44:51.933Z,8.00
2019-01-11T21:47:24.046Z,11.45
2019-01-11T21:49:56.513Z,27.60
2019-01-11T21:52:28.308Z,12.40
2019-01-11T21:55:01.389Z,46.92
2019-01-11T21:57:33.598Z,48.73
2019-01-11T22:00:07.150Z,74.82
2019-01-11T22:02:39.131Z,67.67
2019-01-11T22:05:11.170Z,77.05
2019-01-11T22:07:45.420Z,41.30
2019-01-11T22:10:17.530Z,11.05
2019-01-11T22:12:49.854Z,8.48
2019-01-11T22:15:22.503Z,7.58
2019-01-11T22:17:55.470Z,7.53
2019-01-11T22:20:27.710Z,7.55
2019-01-11T22:22:59.721Z,8.43
2019-01-11T22:25:31.423Z,8.88
2019-01-11T22:28:03.198Z,8.18
2019-01-11T22:30:35.387Z,7.87
2019-01-11T22:33:07.161Z,7.85
2019-01-11T22:35:38.965Z,7.95
2019-01-11T22:38:10.595Z,7.90
2019-01-11T22:40:42.118Z,8.80
2019-01-11T22:43:14.169Z,8.45
2019-01-11T22:45:46.105Z,8.13
2019-01-11T22:48:18.383Z,7.37
2019-01-11T22:50:50.499Z,8.13
2019-01-11T22:53:22.260Z,8.13
2019-01-11T22:55:54.160Z,8.45
2019-01-11T22:58:26.104Z,8.58
2019-01-11T23:01:49.598Z,8.30
2019-01-11T23:04:21.516Z,8.35
2019-01-11T23:07:38.056Z,8.40
2019-01-11T23:10:53.308Z,8.68
2019-01-11T23:13:25.343Z,11.53
2019-01-11T23:16:25.692Z,12.63
2019-01-11T23:18:59.515Z,11.45
2019-01-11T23:21:31.207Z,10.88
2019-01-11T23:24:03.156Z,9.90
2019-01-11T23:26:43.647Z,9.85
2019-01-11T23:29:15.706Z,9.78
2019-01-11T23:31:48.102Z,8.48
2019-01-11T23:34:19.908Z,9.33
2019-01-11T23:36:52.111Z,8.23
2019-01-11T23:39:23.842Z,8.23
2019-01-11T23:41:56.235Z,7.72
2019-01-11T23:44:27.974Z,7.30
2019-01-11T23:47:00.504Z,7.00
2019-01-11T23:49:32.223Z,6.97
2019-01-11T23:52:05.041Z,7.83
2019-01-11T23:54:37.067Z,8.15
2019-01-11T23:57:09.451Z,7.37
2019-01-11T23:59:41.199Z,7.08
